createdAt,value
2023-08-15T00:03:29.678Z,22.04
2023-08-15T00:08:32.315Z,21.88
2023-08-15T00:13:34.927Z,21.84
2023-08-15T00:18:38.779Z,21.74
2023-08-15T00:23:44.386Z,21.81
2023-08-15T00:28:47.402Z,21.57
2023-08-15T00:33:50.474Z,21.49
2023-08-15T00:38:53.495Z,21.39
2023-08-15T00:43:56.329Z,21.25
2023-08-15T00:48:59.683Z,21.72
2023-08-15T00:54:02.538Z,21.71
2023-08-15T00:59:05.684Z,21.61
2023-08-15T01:04:10.278Z,21.75
2023-08-15T01:09:16.148Z,21.56
2023-08-15T01:14:21.173Z,21.73
2023-08-15T01:19:41.786Z,21.75
2023-08-15T01:24:46.609Z,21.63
2023-08-15T01:29:54.284Z,21.30
2023-08-15T01:35:19.925Z,21.29
2023-08-15T01:40:22.964Z,21.21
2023-08-15T01:45:27.043Z,21.29
2023-08-15T01:50:31.484Z,21.36
2023-08-15T01:55:34.137Z,21.44
2023-08-15T02:00:37.427Z,21.33
2023-08-15T02:05:43.259Z,21.16
2023-08-15T02:10:46.191Z,20.76
2023-08-15T02:15:49.437Z,20.74
2023-08-15T02:20:51.996Z,21.03
2023-08-15T02:25:54.995Z,20.95
2023-08-15T02:31:08.472Z,20.79
2023-08-15T02:36:12.432Z,20.71
2023-08-15T02:41:15.432Z,20.70
2023-08-15T02:46:26.572Z,20.74
2023-08-15T02:51:54.660Z,20.54
2023-08-15T02:56:57.415Z,20.62
2023-08-15T03:02:25.087Z,21.02
2023-08-15T03:07:29.393Z,20.91
2023-08-15T03:12:32.301Z,20.76
2023-08-15T03:17:41.324Z,20.57
2023-08-15T03:22:46.538Z,20.55
2023-08-15T03:27:50.101Z,20.61
2023-08-15T03:32:53.357Z,20.48
2023-08-15T03:38:06.001Z,20.50
2023-08-15T03:43:08.649Z,20.46
2023-08-15T03:48:11.641Z,20.55
2023-08-15T03:53:14.466Z,20.35
2023-08-15T03:58:19.007Z,20.26
2023-08-15T04:03:21.446Z,20.46
2023-08-15T04:08:30.503Z,21.36
2023-08-15T04:13:34.816Z,22.25
2023-08-15T04:18:37.193Z,21.99
2023-08-15T04:23:40.074Z,23.21
2023-08-15T04:28:52.216Z,23.76
2023-08-15T04:33:55.209Z,24.37
2023-08-15T04:38:58.713Z,24.75
2023-08-15T04:44:01.494Z,25.22
2023-08-15T04:49:04.259Z,25.59
2023-08-15T04:54:07.913Z,25.52
2023-08-15T04:59:11.148Z,26.20
2023-08-15T05:04:13.771Z,26.58
2023-08-15T05:09:16.380Z,26.39
2023-08-15T05:14:19.652Z,26.09
2023-08-15T05:19:22.612Z,25.77
2023-08-15T05:24:26.931Z,25.34
2023-08-15T05:29:31.646Z,26.00
2023-08-15T05:34:34.750Z,26.31
2023-08-15T05:39:39.359Z,26.47
2023-08-15T05:44:41.979Z,26.46
2023-08-15T05:49:46.224Z,26.76
2023-08-15T05:54:48.906Z,26.51
2023-08-15T05:59:51.526Z,26.62
2023-08-15T06:04:54.748Z,26.42
2023-08-15T06:09:57.413Z,26.93
2023-08-15T06:15:00.158Z,27.03
2023-08-15T06:20:02.611Z,27.29
2023-08-15T06:25:05.948Z,28.13
2023-08-15T06:30:10.202Z,28.04
2023-08-15T06:35:18.073Z,27.96
2023-08-15T06:40:20.956Z,28.31
2023-08-15T06:45:25.127Z,28.66
2023-08-15T06:50:28.114Z,27.92
2023-08-15T06:55:31.589Z,27.90
2023-08-15T07:00:34.185Z,27.68
2023-08-15T07:05:36.833Z,27.38
2023-08-15T07:10:40.130Z,27.35
2023-08-15T07:15:42.645Z,27.35
2023-08-15T07:20:46.287Z,27.17
2023-08-15T07:25:49.298Z,27.58
2023-08-15T07:30:51.756Z,27.70
2023-08-15T07:35:57.170Z,27.76
2023-08-15T07:40:59.950Z,27.86
2023-08-15T07:46:02.518Z,28.00
2023-08-15T07:51:05.119Z,28.37
2023-08-15T07:56:09.209Z,28.10
2023-08-15T08:01:16.275Z,28.26
2023-08-15T08:06:37.085Z,28.42
2023-08-15T08:11:43.543Z,28.70
2023-08-15T08:16:46.557Z,28.86
2023-08-15T08:21:49.065Z,28.66
2023-08-15T08:27:06.181Z,28.68
2023-08-15T08:32:09.086Z,28.83
2023-08-15T08:37:12.579Z,29.02
2023-08-15T08:42:17.235Z,29.48
2023-08-15T08:47:23.934Z,29.77
2023-08-15T08:52:42.593Z,29.92
2023-08-15T08:57:47.521Z,30.00
2023-08-15T09:02:50.813Z,30.16
2023-08-15T09:07:53.775Z,29.91
2023-08-15T09:13:01.646Z,29.85
2023-08-15T09:18:06.430Z,30.06
2023-08-15T09:23:10.769Z,30.09
2023-08-15T09:28:14.644Z,30.32
2023-08-15T09:33:17.372Z,30.39
2023-08-15T09:38:19.845Z,30.37
2023-08-15T09:43:22.788Z,30.44
2023-08-15T09:48:35.928Z,30.32
2023-08-15T09:53:39.892Z,30.58
2023-08-15T09:58:42.666Z,30.85
2023-08-15T10:03:45.725Z,30.83
2023-08-15T10:08:48.781Z,30.76
2023-08-15T10:13:52.584Z,30.84
2023-08-15T10:18:55.888Z,30.85
2023-08-15T10:24:05.863Z,30.95
2023-08-15T10:29:25.769Z,30.96
2023-08-15T10:34:33.740Z,31.38
2023-08-15T10:39:39.282Z,31.49
2023-08-15T10:45:01.441Z,31.65
2023-08-15T10:50:04.855Z,31.76
2023-08-15T10:55:11.949Z,31.85
2023-08-15T11:00:31.180Z,31.89
2023-08-15T11:05:35.403Z,32.12
2023-08-15T11:10:42.368Z,32.58
2023-08-15T11:15:58.750Z,32.60
2023-08-15T11:21:05.005Z,32.84
2023-08-15T11:26:13.485Z,32.97
2023-08-15T11:31:22.410Z,33.15
2023-08-15T11:36:25.895Z,33.25
2023-08-15T11:41:36.853Z,33.41
2023-08-15T11:51:53.143Z,33.55
2023-08-15T11:57:06.523Z,33.53
2023-08-15T12:02:13.878Z,33.67
2023-08-15T12:07:33.226Z,33.56
2023-08-15T12:12:50.696Z,33.62
2023-08-15T12:17:53.401Z,33.66
2023-08-15T12:23:38.566Z,33.88
2023-08-15T12:28:42.052Z,33.79
2023-08-15T12:33:47.424Z,34.02
2023-08-15T12:38:51.479Z,34.00
2023-08-15T12:43:54.236Z,34.14
2023-08-15T12:49:03.877Z,34.17
2023-08-15T12:54:06.883Z,34.10
2023-08-15T12:59:10.386Z,34.36
2023-08-15T13:04:20.396Z,34.37
2023-08-15T13:09:23.029Z,34.51
2023-08-15T13:14:33.223Z,34.52
2023-08-15T13:19:36.933Z,34.59
2023-08-15T13:24:42.651Z,34.71
2023-08-15T13:30:12.428Z,34.59
2023-08-15T13:35:29.852Z,34.95
2023-08-15T13:40:32.965Z,34.84
2023-08-15T13:45:35.916Z,34.94
2023-08-15T13:50:39.238Z,34.99
2023-08-15T13:55:45.773Z,34.75
2023-08-15T14:00:51.652Z,34.88
2023-08-15T14:05:56.519Z,34.71
2023-08-15T14:11:01.146Z,34.90
2023-08-15T14:16:04.438Z,34.93
2023-08-15T14:21:10.436Z,34.96
2023-08-15T14:26:15.085Z,34.75
2023-08-15T14:31:43.383Z,34.67
2023-08-15T14:36:48.200Z,34.43
2023-08-15T14:41:51.916Z,34.73
2023-08-15T14:46:54.757Z,34.61
2023-08-15T14:51:57.630Z,34.74
2023-08-15T14:57:32.354Z,34.42
2023-08-15T15:02:43.921Z,34.52
2023-08-15T15:07:47.398Z,34.53
2023-08-15T15:12:50.332Z,34.53
2023-08-15T15:17:58.455Z,34.51
2023-08-15T15:23:01.099Z,34.25
2023-08-15T15:28:03.599Z,34.30
2023-08-15T15:33:07.271Z,34.16
2023-08-15T15:38:10.009Z,34.17
2023-08-15T15:43:12.577Z,34.22
2023-08-15T15:48:15.179Z,33.83
2023-08-15T15:53:18.562Z,33.89
2023-08-15T15:58:27.983Z,34.04
2023-08-15T16:03:31.069Z,33.61
2023-08-15T16:08:33.778Z,33.59
2023-08-15T16:13:36.879Z,33.29
2023-08-15T16:18:39.415Z,33.11
2023-08-15T16:23:42.927Z,33.20
2023-08-15T16:28:51.907Z,33.12
2023-08-15T16:33:54.915Z,33.02
2023-08-15T16:38:57.317Z,32.89
2023-08-15T16:43:59.958Z,32.84
2023-08-15T16:49:02.326Z,32.51
2023-08-15T16:54:06.050Z,32.36
2023-08-15T16:59:14.343Z,32.14
2023-08-15T17:04:17.476Z,31.74
2023-08-15T17:09:20.345Z,31.48
2023-08-15T17:14:23.145Z,31.10
2023-08-15T17:19:26.044Z,30.86
2023-08-15T17:24:28.959Z,30.51
2023-08-15T17:29:31.437Z,30.22
2023-08-15T17:34:36.678Z,30.04
2023-08-15T17:39:39.246Z,30.02
2023-08-15T17:44:42.606Z,29.69
2023-08-15T17:49:45.844Z,29.37
2023-08-15T17:54:59.165Z,29.05
2023-08-15T18:00:02.992Z,28.79
2023-08-15T18:05:06.862Z,28.52
2023-08-15T18:10:12.315Z,28.17
2023-08-15T18:15:15.420Z,27.98
2023-08-15T18:20:18.191Z,27.70
2023-08-15T18:25:30.323Z,27.58
2023-08-15T18:30:33.970Z,27.13
2023-08-15T18:35:37.777Z,27.08
2023-08-15T18:40:41.909Z,27.04
2023-08-15T18:46:09.473Z,26.79
2023-08-15T18:51:12.340Z,26.64
2023-08-15T18:56:28.813Z,26.42
2023-08-15T19:02:02.671Z,26.40
2023-08-15T19:07:06.526Z,26.20
2023-08-15T19:12:14.177Z,26.06
2023-08-15T19:17:19.959Z,26.07
2023-08-15T19:22:22.827Z,25.94
2023-08-15T19:27:26.687Z,25.77
2023-08-15T19:32:29.568Z,25.70
2023-08-15T19:37:38.864Z,25.66
2023-08-15T19:42:50.043Z,25.56
2023-08-15T19:48:20.644Z,25.50
2023-08-15T19:53:24.074Z,25.43
2023-08-15T19:58:26.627Z,25.46
2023-08-15T20:03:48.341Z,25.55
2023-08-15T20:08:51.373Z,25.59
2023-08-15T20:13:59.454Z,25.65
2023-08-15T20:19:02.619Z,25.48
2023-08-15T20:24:06.564Z,25.39
2023-08-15T20:29:38.164Z,25.30
2023-08-15T20:34:41.663Z,25.18
2023-08-15T20:39:44.507Z,25.05
2023-08-15T20:44:47.433Z,25.06
2023-08-15T20:49:49.781Z,25.05
2023-08-15T20:54:54.109Z,24.98
2023-08-15T20:59:58.337Z,24.97
2023-08-15T21:05:02.606Z,24.93
2023-08-15T21:10:06.181Z,24.84
2023-08-15T21:15:10.610Z,24.82
2023-08-15T21:20:13.823Z,24.77
2023-08-15T21:25:16.775Z,24.72
2023-08-15T21:30:19.712Z,24.75
2023-08-15T21:35:22.559Z,24.72
2023-08-15T21:40:25.115Z,24.78
2023-08-15T21:45:28.076Z,24.84
2023-08-15T21:51:21.192Z,24.77
2023-08-15T21:56:24.164Z,24.72
2023-08-15T22:01:34.980Z,24.66
2023-08-15T22:06:40.955Z,24.64
2023-08-15T22:11:45.078Z,24.70
2023-08-15T22:16:47.838Z,24.63
2023-08-15T22:21:50.488Z,24.62
2023-08-15T22:27:18.345Z,24.46
2023-08-15T22:32:59.159Z,24.48
2023-08-15T22:38:08.768Z,24.28
2023-08-15T22:43:11.806Z,24.17
2023-08-15T22:48:14.660Z,24.19
2023-08-15T22:53:17.789Z,24.10
2023-08-15T22:58:31.486Z,23.85
2023-08-15T23:04:26.321Z,23.86
2023-08-15T23:09:41.575Z,23.79
2023-08-15T23:14:44.562Z,23.78
2023-08-15T23:19:47.339Z,23.49
2023-08-15T23:24:49.916Z,23.62
2023-08-15T23:29:52.900Z,23.59
2023-08-15T23:34:55.742Z,23.54
2023-08-15T23:39:58.271Z,23.46
2023-08-15T23:45:01.185Z,23.42
2023-08-15T23:50:04.511Z,23.41
2023-08-15T23:55:12.389Z,23.34
